sensor_id;sensor_type;location;lat;lon;timestamp;pressure;altitude;pressure_sealevel;temperature
76895;BMP280;65855;42.030;13.078;2023-11-21T00:00:51;92934.72;;;10.51
76895;BMP280;65855;42.030;13.078;2023-11-21T00:03:16;92930.41;;;10.43
76895;BMP280;65855;42.030;13.078;2023-11-21T00:05:42;92927.72;;;10.40
76895;BMP280;65855;42.030;13.078;2023-11-21T00:08:08;92926.09;;;10.35
76895;BMP280;65855;42.030;13.078;2023-11-21T00:10:34;92920.44;;;10.38
76895;BMP280;65855;42.030;13.078;2023-11-21T00:13:00;92918.78;;;10.34
76895;BMP280;65855;42.030;13.078;2023-11-21T00:15:27;92912.78;;;10.52
76895;BMP280;65855;42.030;13.078;2023-11-21T00:17:52;92906.91;;;10.26
76895;BMP280;65855;42.030;13.078;2023-11-21T00:20:18;92908.72;;;10.34
76895;BMP280;65855;42.030;13.078;2023-11-21T00:22:43;92905.66;;;10.54
76895;BMP280;65855;42.030;13.078;2023-11-21T00:25:08;92925.25;;;10.56
76895;BMP280;65855;42.030;13.078;2023-11-21T00:27:35;92931.03;;;10.49
76895;BMP280;65855;42.030;13.078;2023-11-21T00:30:01;92924.16;;;10.41
76895;BMP280;65855;42.030;13.078;2023-11-21T00:32:26;92924.47;;;10.39
76895;BMP280;65855;42.030;13.078;2023-11-21T00:34:52;92910.81;;;10.40
76895;BMP280;65855;42.030;13.078;2023-11-21T00:37:17;92896.53;;;10.28
76895;BMP280;65855;42.030;13.078;2023-11-21T00:39:43;92885.13;;;10.22
76895;BMP280;65855;42.030;13.078;2023-11-21T00:42:08;92882.88;;;10.20
76895;BMP280;65855;42.030;13.078;2023-11-21T00:44:34;92871.34;;;10.19
76895;BMP280;65855;42.030;13.078;2023-11-21T00:46:59;92857.88;;;10.24
76895;BMP280;65855;42.030;13.078;2023-11-21T00:49:25;92859.06;;;10.26
76895;BMP280;65855;42.030;13.078;2023-11-21T00:51:50;92855.38;;;10.32
76895;BMP280;65855;42.030;13.078;2023-11-21T00:54:15;92845.31;;;10.32
76895;BMP280;65855;42.030;13.078;2023-11-21T00:56:42;92835.84;;;10.37
76895;BMP280;65855;42.030;13.078;2023-11-21T00:59:08;92832.88;;;10.44
76895;BMP280;65855;42.030;13.078;2023-11-21T01:01:33;92827.13;;;10.60
76895;BMP280;65855;42.030;13.078;2023-11-21T01:03:58;92810.69;;;10.71
76895;BMP280;65855;42.030;13.078;2023-11-21T01:06:24;92823.72;;;10.64
76895;BMP280;65855;42.030;13.078;2023-11-21T01:08:49;92826.25;;;10.56
76895;BMP280;65855;42.030;13.078;2023-11-21T01:11:15;92819.72;;;10.55
76895;BMP280;65855;42.030;13.078;2023-11-21T01:13:41;92807.56;;;10.57
76895;BMP280;65855;42.030;13.078;2023-11-21T01:16:07;92808.78;;;10.68
76895;BMP280;65855;42.030;13.078;2023-11-21T01:18:32;92813.81;;;10.76
76895;BMP280;65855;42.030;13.078;2023-11-21T01:20:58;92798.69;;;10.76
76895;BMP280;65855;42.030;13.078;2023-11-21T01:23:25;92805.06;;;10.82
76895;BMP280;65855;42.030;13.078;2023-11-21T01:25:52;92808.63;;;10.81
76895;BMP280;65855;42.030;13.078;2023-11-21T01:28:17;92800.16;;;10.85
76895;BMP280;65855;42.030;13.078;2023-11-21T01:30:43;92800.75;;;10.91
76895;BMP280;65855;42.030;13.078;2023-11-21T01:33:09;92792.59;;;10.94
76895;BMP280;65855;42.030;13.078;2023-11-21T01:35:35;92789.78;;;10.95
76895;BMP280;65855;42.030;13.078;2023-11-21T01:38:01;92784.00;;;10.95
76895;BMP280;65855;42.030;13.078;2023-11-21T01:40:26;92785.03;;;10.94
76895;BMP280;65855;42.030;13.078;2023-11-21T01:42:53;92773.63;;;10.88
76895;BMP280;65855;42.030;13.078;2023-11-21T01:45:18;92769.44;;;10.92
76895;BMP280;65855;42.030;13.078;2023-11-21T01:47:44;92769.47;;;11.00
76895;BMP280;65855;42.030;13.078;2023-11-21T01:50:14;92765.44;;;11.07
76895;BMP280;65855;42.030;13.078;2023-11-21T01:52:40;92765.13;;;11.09
76895;BMP280;65855;42.030;13.078;2023-11-21T01:55:07;92759.34;;;11.17
76895;BMP280;65855;42.030;13.078;2023-11-21T01:57:34;92755.94;;;11.04
76895;BMP280;65855;42.030;13.078;2023-11-21T02:00:02;92751.34;;;10.98
76895;BMP280;65855;42.030;13.078;2023-11-21T02:02:44;92728.66;;;10.98
76895;BMP280;65855;42.030;13.078;2023-11-21T02:05:11;92723.03;;;11.01
76895;BMP280;65855;42.030;13.078;2023-11-21T02:07:41;92727.44;;;11.12
76895;BMP280;65855;42.030;13.078;2023-11-21T02:10:08;92738.38;;;11.25
76895;BMP280;65855;42.030;13.078;2023-11-21T02:12:34;92747.28;;;11.30
76895;BMP280;65855;42.030;13.078;2023-11-21T02:15:02;92748.63;;;11.28
76895;BMP280;65855;42.030;13.078;2023-11-21T02:17:28;92752.31;;;11.30
76895;BMP280;65855;42.030;13.078;2023-11-21T02:19:53;92760.50;;;11.27
76895;BMP280;65855;42.030;13.078;2023-11-21T02:22:19;92758.44;;;11.38
76895;BMP280;65855;42.030;13.078;2023-11-21T02:24:46;92755.16;;;11.37
76895;BMP280;65855;42.030;13.078;2023-11-21T02:27:13;92753.69;;;11.28
76895;BMP280;65855;42.030;13.078;2023-11-21T02:29:38;92756.66;;;11.22
76895;BMP280;65855;42.030;13.078;2023-11-21T02:32:04;92758.59;;;11.16
76895;BMP280;65855;42.030;13.078;2023-11-21T02:34:29;92752.38;;;11.14
76895;BMP280;65855;42.030;13.078;2023-11-21T02:36:54;92747.63;;;11.04
76895;BMP280;65855;42.030;13.078;2023-11-21T02:39:20;92730.91;;;11.00
76895;BMP280;65855;42.030;13.078;2023-11-21T02:41:47;92724.66;;;10.97
76895;BMP280;65855;42.030;13.078;2023-11-21T02:44:13;92711.03;;;10.73
76895;BMP280;65855;42.030;13.078;2023-11-21T02:46:38;92690.44;;;10.63
76895;BMP280;65855;42.030;13.078;2023-11-21T02:49:04;92675.34;;;10.63
76895;BMP280;65855;42.030;13.078;2023-11-21T02:51:35;92648.03;;;10.65
76895;BMP280;65855;42.030;13.078;2023-11-21T02:54:01;92631.00;;;10.70
76895;BMP280;65855;42.030;13.078;2023-11-21T02:56:29;92617.63;;;10.78
76895;BMP280;65855;42.030;13.078;2023-11-21T02:58:57;92622.22;;;10.76
76895;BMP280;65855;42.030;13.078;2023-11-21T03:01:23;92612.00;;;10.81
76895;BMP280;65855;42.030;13.078;2023-11-21T03:03:52;92608.69;;;10.89
76895;BMP280;65855;42.030;13.078;2023-11-21T03:06:18;92634.41;;;11.19
76895;BMP280;65855;42.030;13.078;2023-11-21T03:08:44;92654.97;;;11.38
76895;BMP280;65855;42.030;13.078;2023-11-21T03:11:09;92661.53;;;11.39
76895;BMP280;65855;42.030;13.078;2023-11-21T03:13:35;92669.09;;;11.39
76895;BMP280;65855;42.030;13.078;2023-11-21T03:16:00;92678.84;;;11.49
76895;BMP280;65855;42.030;13.078;2023-11-21T03:18:26;92696.94;;;11.51
76895;BMP280;65855;42.030;13.078;2023-11-21T03:20:54;92707.38;;;11.24
76895;BMP280;65855;42.030;13.078;2023-11-21T03:23:20;92715.13;;;11.19
76895;BMP280;65855;42.030;13.078;2023-11-21T03:25:45;92716.44;;;11.17
76895;BMP280;65855;42.030;13.078;2023-11-21T03:28:11;92721.97;;;11.10
76895;BMP280;65855;42.030;13.078;2023-11-21T03:30:36;92722.13;;;10.97
76895;BMP280;65855;42.030;13.078;2023-11-21T03:33:01;92722.59;;;10.91
76895;BMP280;65855;42.030;13.078;2023-11-21T03:35:27;92712.97;;;10.76
76895;BMP280;65855;42.030;13.078;2023-11-21T03:37:53;92699.50;;;10.56
76895;BMP280;65855;42.030;13.078;2023-11-21T03:40:18;92695.19;;;10.56
76895;BMP280;65855;42.030;13.078;2023-11-21T03:42:44;92685.72;;;10.36
76895;BMP280;65855;42.030;13.078;2023-11-21T03:45:09;92672.09;;;10.29
76895;BMP280;65855;42.030;13.078;2023-11-21T03:47:37;92654.28;;;10.34
76895;BMP280;65855;42.030;13.078;2023-11-21T03:50:02;92649.88;;;10.23
76895;BMP280;65855;42.030;13.078;2023-11-21T03:52:28;92640.38;;;10.20
76895;BMP280;65855;42.030;13.078;2023-11-21T03:54:54;92622.44;;;10.21
76895;BMP280;65855;42.030;13.078;2023-11-21T03:57:21;92616.84;;;10.24
76895;BMP280;65855;42.030;13.078;2023-11-21T03:59:47;92610.59;;;10.30
76895;BMP280;65855;42.030;13.078;2023-11-21T04:02:12;92603.94;;;10.26
76895;BMP280;65855;42.030;13.078;2023-11-21T04:04:38;92594.75;;;10.30
76895;BMP280;65855;42.030;13.078;2023-11-21T04:07:04;92595.63;;;10.25
76895;BMP280;65855;42.030;13.078;2023-11-21T04:09:30;92579.78;;;10.33
76895;BMP280;65855;42.030;13.078;2023-11-21T04:11:55;92571.16;;;10.34
76895;BMP280;65855;42.030;13.078;2023-11-21T04:14:21;92572.81;;;10.30
76895;BMP280;65855;42.030;13.078;2023-11-21T04:16:47;92561.09;;;10.34
76895;BMP280;65855;42.030;13.078;2023-11-21T04:19:14;92563.03;;;10.37
76895;BMP280;65855;42.030;13.078;2023-11-21T04:21:42;92556.66;;;10.39
76895;BMP280;65855;42.030;13.078;2023-11-21T04:24:08;92560.34;;;10.50
76895;BMP280;65855;42.030;13.078;2023-11-21T04:26:34;92557.19;;;10.53
76895;BMP280;65855;42.030;13.078;2023-11-21T04:28:59;92562.09;;;10.58
76895;BMP280;65855;42.030;13.078;2023-11-21T04:31:24;92552.44;;;10.68
76895;BMP280;65855;42.030;13.078;2023-11-21T04:33:50;92562.66;;;10.63
76895;BMP280;65855;42.030;13.078;2023-11-21T04:36:15;92558.78;;;10.66
76895;BMP280;65855;42.030;13.078;2023-11-21T04:38:41;92553.28;;;10.72
76895;BMP280;65855;42.030;13.078;2023-11-21T04:41:06;92562.94;;;10.70
76895;BMP280;65855;42.030;13.078;2023-11-21T04:43:32;92565.88;;;10.72
76895;BMP280;65855;42.030;13.078;2023-11-21T04:45:57;92564.13;;;10.64
76895;BMP280;65855;42.030;13.078;2023-11-21T04:48:22;92574.22;;;10.64
76895;BMP280;65855;42.030;13.078;2023-11-21T04:50:48;92572.00;;;10.55
76895;BMP280;65855;42.030;13.078;2023-11-21T04:53:13;92566.38;;;10.57
76895;BMP280;65855;42.030;13.078;2023-11-21T04:55:40;92557.84;;;10.42
76895;BMP280;65855;42.030;13.078;2023-11-21T04:58:05;92549.53;;;10.41
76895;BMP280;65855;42.030;13.078;2023-11-21T05:00:31;92552.50;;;10.43
76895;BMP280;65855;42.030;13.078;2023-11-21T05:02:57;92540.94;;;10.34
76895;BMP280;65855;42.030;13.078;2023-11-21T05:05:22;92543.78;;;10.24
76895;BMP280;65855;42.030;13.078;2023-11-21T05:07:47;92524.34;;;10.33
76895;BMP280;65855;42.030;13.078;2023-11-21T05:10:14;92523.03;;;10.35
76895;BMP280;65855;42.030;13.078;2023-11-21T05:12:41;92522.28;;;10.35
76895;BMP280;65855;42.030;13.078;2023-11-21T05:15:07;92519.59;;;10.48
76895;BMP280;65855;42.030;13.078;2023-11-21T05:17:37;92516.50;;;10.43
76895;BMP280;65855;42.030;13.078;2023-11-21T05:20:04;92516.38;;;10.31
76895;BMP280;65855;42.030;13.078;2023-11-21T05:22:33;92514.44;;;10.28
76895;BMP280;65855;42.030;13.078;2023-11-21T05:24:59;92513.41;;;10.29
76895;BMP280;65855;42.030;13.078;2023-11-21T05:27:25;92512.97;;;10.27
76895;BMP280;65855;42.030;13.078;2023-11-21T05:29:50;92524.50;;;10.28
76895;BMP280;65855;42.030;13.078;2023-11-21T05:32:15;92516.84;;;10.25
76895;BMP280;65855;42.030;13.078;2023-11-21T05:34:42;92515.91;;;10.37
76895;BMP280;65855;42.030;13.078;2023-11-21T05:37:08;92510.91;;;10.29
76895;BMP280;65855;42.030;13.078;2023-11-21T05:39:33;92516.25;;;10.19
76895;BMP280;65855;42.030;13.078;2023-11-21T05:41:58;92509.88;;;10.13
76895;BMP280;65855;42.030;13.078;2023-11-21T05:44:25;92519.66;;;10.07
76895;BMP280;65855;42.030;13.078;2023-11-21T05:46:50;92511.63;;;10.21
76895;BMP280;65855;42.030;13.078;2023-11-21T05:49:16;92508.41;;;10.12
76895;BMP280;65855;42.030;13.078;2023-11-21T05:51:41;92506.78;;;10.08
76895;BMP280;65855;42.030;13.078;2023-11-21T05:54:07;92502.75;;;10.15
76895;BMP280;65855;42.030;13.078;2023-11-21T05:56:33;92498.03;;;10.14
76895;BMP280;65855;42.030;13.078;2023-11-21T05:58:58;92501.00;;;10.07
76895;BMP280;65855;42.030;13.078;2023-11-21T06:01:25;92501.47;;;10.01
76895;BMP280;65855;42.030;13.078;2023-11-21T06:03:53;92488.69;;;10.23
76895;BMP280;65855;42.030;13.078;2023-11-21T06:06:19;92490.75;;;10.21
76895;BMP280;65855;42.030;13.078;2023-11-21T06:08:45;92492.72;;;10.07
76895;BMP280;65855;42.030;13.078;2023-11-21T06:11:10;92492.88;;;10.10
76895;BMP280;65855;42.030;13.078;2023-11-21T06:13:36;92484.72;;;10.13
76895;BMP280;65855;42.030;13.078;2023-11-21T06:16:03;92495.38;;;10.10
76895;BMP280;65855;42.030;13.078;2023-11-21T06:18:29;92482.88;;;10.22
76895;BMP280;65855;42.030;13.078;2023-11-21T06:20:55;92471.50;;;10.25
76895;BMP280;65855;42.030;13.078;2023-11-21T06:23:20;92460.69;;;10.24
76895;BMP280;65855;42.030;13.078;2023-11-21T06:25:45;92470.19;;;10.19
76895;BMP280;65855;42.030;13.078;2023-11-21T06:28:11;92481.00;;;10.11
76895;BMP280;65855;42.030;13.078;2023-11-21T06:30:36;92474.25;;;10.40
76895;BMP280;65855;42.030;13.078;2023-11-21T06:33:02;92467.63;;;10.27
76895;BMP280;65855;42.030;13.078;2023-11-21T06:35:27;92449.69;;;10.29
76895;BMP280;65855;42.030;13.078;2023-11-21T06:37:55;92458.59;;;10.26
76895;BMP280;65855;42.030;13.078;2023-11-21T06:40:20;92460.19;;;10.39
76895;BMP280;65855;42.030;13.078;2023-11-21T06:42:46;92469.16;;;10.56
76895;BMP280;65855;42.030;13.078;2023-11-21T06:45:12;92455.78;;;10.64
76895;BMP280;65855;42.030;13.078;2023-11-21T06:47:38;92468.69;;;10.55
76895;BMP280;65855;42.030;13.078;2023-11-21T06:50:05;92455.69;;;10.53
76895;BMP280;65855;42.030;13.078;2023-11-21T06:52:31;92460.72;;;10.53
76895;BMP280;65855;42.030;13.078;2023-11-21T06:54:57;92457.31;;;10.57
76895;BMP280;65855;42.030;13.078;2023-11-21T06:57:23;92471.22;;;10.55
76895;BMP280;65855;42.030;13.078;2023-11-21T06:59:48;92453.16;;;10.53
76895;BMP280;65855;42.030;13.078;2023-11-21T07:02:15;92455.63;;;10.61
76895;BMP280;65855;42.030;13.078;2023-11-21T07:04:44;92458.34;;;10.56
76895;BMP280;65855;42.030;13.078;2023-11-21T07:07:10;92452.25;;;10.57
76895;BMP280;65855;42.030;13.078;2023-11-21T07:09:36;92460.25;;;10.59
76895;BMP280;65855;42.030;13.078;2023-11-21T07:12:01;92460.25;;;10.59
76895;BMP280;65855;42.030;13.078;2023-11-21T07:14:29;92458.13;;;10.69
76895;BMP280;65855;42.030;13.078;2023-11-21T07:16:54;92446.13;;;10.66
76895;BMP280;65855;42.030;13.078;2023-11-21T07:19:20;92445.22;;;10.71
76895;BMP280;65855;42.030;13.078;2023-11-21T07:21:46;92444.13;;;10.80
76895;BMP280;65855;42.030;13.078;2023-11-21T07:24:15;92448.72;;;10.78
76895;BMP280;65855;42.030;13.078;2023-11-21T07:26:41;92443.16;;;10.93
76895;BMP280;65855;42.030;13.078;2023-11-21T07:29:06;92449.88;;;10.89
76895;BMP280;65855;42.030;13.078;2023-11-21T07:31:32;92446.81;;;11.03
76895;BMP280;65855;42.030;13.078;2023-11-21T07:33:59;92439.88;;;11.01
76895;BMP280;65855;42.030;13.078;2023-11-21T07:36:25;92451.91;;;10.95
76895;BMP280;65855;42.030;13.078;2023-11-21T07:38:51;92439.00;;;10.97
76895;BMP280;65855;42.030;13.078;2023-11-21T07:41:17;92442.94;;;11.06
76895;BMP280;65855;42.030;13.078;2023-11-21T07:43:44;92441.84;;;11.15
76895;BMP280;65855;42.030;13.078;2023-11-21T07:46:10;92445.91;;;11.28
76895;BMP280;65855;42.030;13.078;2023-11-21T07:48:38;92432.97;;;11.29
76895;BMP280;65855;42.030;13.078;2023-11-21T07:51:04;92438.75;;;11.30
76895;BMP280;65855;42.030;13.078;2023-11-21T07:53:29;92444.06;;;11.57
76895;BMP280;65855;42.030;13.078;2023-11-21T07:55:58;92450.41;;;11.43
76895;BMP280;65855;42.030;13.078;2023-11-21T07:58:24;92460.34;;;11.48
76895;BMP280;65855;42.030;13.078;2023-11-21T08:00:50;92436.06;;;11.55
76895;BMP280;65855;42.030;13.078;2023-11-21T08:03:16;92456.41;;;11.38
76895;BMP280;65855;42.030;13.078;2023-11-21T08:05:42;92449.13;;;11.37
76895;BMP280;65855;42.030;13.078;2023-11-21T08:08:08;92445.13;;;11.36
76895;BMP280;65855;42.030;13.078;2023-11-21T08:10:33;92447.06;;;11.39
76895;BMP280;65855;42.030;13.078;2023-11-21T08:12:59;92444.22;;;11.40
76895;BMP280;65855;42.030;13.078;2023-11-21T08:15:24;92446.47;;;11.53
76895;BMP280;65855;42.030;13.078;2023-11-21T08:17:50;92453.69;;;11.43
76895;BMP280;65855;42.030;13.078;2023-11-21T08:20:15;92448.13;;;11.50
76895;BMP280;65855;42.030;13.078;2023-11-21T08:22:44;92441.44;;;11.53
76895;BMP280;65855;42.030;13.078;2023-11-21T08:25:09;92452.56;;;11.52
76895;BMP280;65855;42.030;13.078;2023-11-21T08:27:35;92457.41;;;11.57
76895;BMP280;65855;42.030;13.078;2023-11-21T08:30:02;92452.41;;;11.69
76895;BMP280;65855;42.030;13.078;2023-11-21T08:32:28;92450.81;;;11.85
76895;BMP280;65855;42.030;13.078;2023-11-21T08:34:55;92465.00;;;11.77
76895;BMP280;65855;42.030;13.078;2023-11-21T08:37:21;92471.16;;;11.68
76895;BMP280;65855;42.030;13.078;2023-11-21T08:39:47;92480.25;;;11.81
76895;BMP280;65855;42.030;13.078;2023-11-21T08:42:18;92484.13;;;11.78
76895;BMP280;65855;42.030;13.078;2023-11-21T08:44:43;92482.84;;;11.73
76895;BMP280;65855;42.030;13.078;2023-11-21T08:47:08;92478.56;;;11.53
76895;BMP280;65855;42.030;13.078;2023-11-21T08:49:34;92472.94;;;11.48
76895;BMP280;65855;42.030;13.078;2023-11-21T08:51:59;92477.13;;;11.44
76895;BMP280;65855;42.030;13.078;2023-11-21T08:54:25;92470.66;;;11.54
76895;BMP280;65855;42.030;13.078;2023-11-21T08:56:52;92461.00;;;11.56
76895;BMP280;65855;42.030;13.078;2023-11-21T08:59:17;92452.22;;;11.74
76895;BMP280;65855;42.030;13.078;2023-11-21T09:01:43;92455.13;;;11.84
76895;BMP280;65855;42.030;13.078;2023-11-21T09:04:08;92449.56;;;11.91
76895;BMP280;65855;42.030;13.078;2023-11-21T09:06:34;92450.44;;;12.06
76895;BMP280;65855;42.030;13.078;2023-11-21T09:09:00;92445.81;;;12.08
76895;BMP280;65855;42.030;13.078;2023-11-21T09:11:25;92446.94;;;12.43
76895;BMP280;65855;42.030;13.078;2023-11-21T09:13:56;92445.38;;;12.62
76895;BMP280;65855;42.030;13.078;2023-11-21T09:16:23;92459.91;;;12.65
76895;BMP280;65855;42.030;13.078;2023-11-21T09:18:48;92454.13;;;12.88
76895;BMP280;65855;42.030;13.078;2023-11-21T09:21:13;92464.34;;;13.03
76895;BMP280;65855;42.030;13.078;2023-11-21T09:23:39;92470.13;;;13.15
76895;BMP280;65855;42.030;13.078;2023-11-21T09:26:04;92474.13;;;13.16
76895;BMP280;65855;42.030;13.078;2023-11-21T09:28:30;92499.16;;;12.94
76895;BMP280;65855;42.030;13.078;2023-11-21T09:30:56;92478.75;;;12.55
76895;BMP280;65855;42.030;13.078;2023-11-21T09:33:21;92483.59;;;12.60
76895;BMP280;65855;42.030;13.078;2023-11-21T09:35:48;92470.47;;;12.78
76895;BMP280;65855;42.030;13.078;2023-11-21T09:38:14;92478.34;;;13.24
76895;BMP280;65855;42.030;13.078;2023-11-21T09:40:40;92482.16;;;13.57
76895;BMP280;65855;42.030;13.078;2023-11-21T09:43:17;92495.66;;;13.10
76895;BMP280;65855;42.030;13.078;2023-11-21T09:45:59;92475.41;;;13.22
76895;BMP280;65855;42.030;13.078;2023-11-21T09:48:28;92477.44;;;13.44
76895;BMP280;65855;42.030;13.078;2023-11-21T09:50:54;92474.06;;;13.51
76895;BMP280;65855;42.030;13.078;2023-11-21T09:53:21;92465.78;;;13.66
76895;BMP280;65855;42.030;13.078;2023-11-21T09:55:48;92449.59;;;13.44
76895;BMP280;65855;42.030;13.078;2023-11-21T09:58:14;92555.88;;;14.02
76895;BMP280;65855;42.030;13.078;2023-11-21T10:00:50;92533.16;;;13.82
76895;BMP280;65855;42.030;13.078;2023-11-21T10:03:17;92519.97;;;13.89
76895;BMP280;65855;42.030;13.078;2023-11-21T10:05:43;92505.19;;;14.02
76895;BMP280;65855;42.030;13.078;2023-11-21T10:08:10;92628.41;;;14.34
76895;BMP280;65855;42.030;13.078;2023-11-21T10:10:46;92618.00;;;14.50
76895;BMP280;65855;42.030;13.078;2023-11-21T10:13:14;92662.44;;;14.60
76895;BMP280;65855;42.030;13.078;2023-11-21T10:15:42;92672.47;;;14.68
76895;BMP280;65855;42.030;13.078;2023-11-21T10:18:14;92682.84;;;14.63
76895;BMP280;65855;42.030;13.078;2023-11-21T10:20:40;92673.53;;;14.67
76895;BMP280;65855;42.030;13.078;2023-11-21T10:23:06;92661.69;;;14.59
76895;BMP280;65855;42.030;13.078;2023-11-21T10:25:36;92666.59;;;14.52
76895;BMP280;65855;42.030;13.078;2023-11-21T10:28:03;92655.63;;;14.48
76895;BMP280;65855;42.030;13.078;2023-11-21T10:30:36;92661.78;;;14.36
76895;BMP280;65855;42.030;13.078;2023-11-21T10:33:04;92662.41;;;14.44
76895;BMP280;65855;42.030;13.078;2023-11-21T10:38:05;92641.63;;;14.27
76895;BMP280;65855;42.030;13.078;2023-11-21T10:40:30;92631.63;;;14.19
76895;BMP280;65855;42.030;13.078;2023-11-21T10:43:06;92613.28;;;13.87
76895;BMP280;65855;42.030;13.078;2023-11-21T10:45:32;92581.75;;;13.96
76895;BMP280;65855;42.030;13.078;2023-11-21T10:47:57;92570.25;;;13.75
76895;BMP280;65855;42.030;13.078;2023-11-21T10:50:24;92556.94;;;13.90
76895;BMP280;65855;42.030;13.078;2023-11-21T10:52:51;92542.81;;;13.77
76895;BMP280;65855;42.030;13.078;2023-11-21T10:55:19;92535.81;;;13.86
76895;BMP280;65855;42.030;13.078;2023-11-21T10:57:52;92537.69;;;14.00
76895;BMP280;65855;42.030;13.078;2023-11-21T11:00:19;92556.41;;;13.96
76895;BMP280;65855;42.030;13.078;2023-11-21T11:02:51;92559.06;;;14.15
76895;BMP280;65855;42.030;13.078;2023-11-21T11:05:20;92551.41;;;13.99
76895;BMP280;65855;42.030;13.078;2023-11-21T11:07:48;92556.41;;;13.96
76895;BMP280;65855;42.030;13.078;2023-11-21T11:10:19;92548.28;;;13.91
76895;BMP280;65855;42.030;13.078;2023-11-21T11:12:48;92561.25;;;13.89
76895;BMP280;65855;42.030;13.078;2023-11-21T11:15:26;92559.91;;;13.80
76895;BMP280;65855;42.030;13.078;2023-11-21T11:17:52;92568.84;;;13.89
76895;BMP280;65855;42.030;13.078;2023-11-21T11:20:34;92580.00;;;14.12
76895;BMP280;65855;42.030;13.078;2023-11-21T11:28:11;92584.72;;;14.25
76895;BMP280;65855;42.030;13.078;2023-11-21T11:30:55;92534.16;;;13.78
76895;BMP280;65855;42.030;13.078;2023-11-21T11:33:43;92493.69;;;13.54
76895;BMP280;65855;42.030;13.078;2023-11-21T11:36:22;92452.69;;;13.37
76895;BMP280;65855;42.030;13.078;2023-11-21T11:38:50;92410.78;;;13.13
76895;BMP280;65855;42.030;13.078;2023-11-21T11:41:26;92389.59;;;13.05
76895;BMP280;65855;42.030;13.078;2023-11-21T11:43:54;92386.66;;;13.03
76895;BMP280;65855;42.030;13.078;2023-11-21T11:46:19;92369.41;;;12.94
76895;BMP280;65855;42.030;13.078;2023-11-21T11:48:48;92350.66;;;12.83
76895;BMP280;65855;42.030;13.078;2023-11-21T11:51:15;92336.75;;;12.77
76895;BMP280;65855;42.030;13.078;2023-11-21T11:53:43;92329.38;;;12.72
76895;BMP280;65855;42.030;13.078;2023-11-21T11:56:33;92324.97;;;12.69
76895;BMP280;65855;42.030;13.078;2023-11-21T11:59:04;92335.28;;;12.76
76895;BMP280;65855;42.030;13.078;2023-11-21T12:01:32;92347.53;;;12.74
76895;BMP280;65855;42.030;13.078;2023-11-21T12:07:05;92333.81;;;13.14
76895;BMP280;65855;42.030;13.078;2023-11-21T12:09:31;92326.97;;;13.14
76895;BMP280;65855;42.030;13.078;2023-11-21T12:11:57;92315.22;;;13.48
76895;BMP280;65855;42.030;13.078;2023-11-21T12:14:22;92288.63;;;14.64
76895;BMP280;65855;42.030;13.078;2023-11-21T12:16:48;92279.78;;;14.92
76895;BMP280;65855;42.030;13.078;2023-11-21T12:19:14;92316.28;;;14.69
76895;BMP280;65855;42.030;13.078;2023-11-21T12:21:40;92345.78;;;14.28
76895;BMP280;65855;42.030;13.078;2023-11-21T12:24:14;92316.19;;;16.43
76895;BMP280;65855;42.030;13.078;2023-11-21T12:26:40;92367.06;;;15.81
76895;BMP280;65855;42.030;13.078;2023-11-21T12:29:06;92421.03;;;14.54
76895;BMP280;65855;42.030;13.078;2023-11-21T12:31:33;92368.13;;;14.71
76895;BMP280;65855;42.030;13.078;2023-11-21T12:34:00;92344.34;;;15.28
76895;BMP280;65855;42.030;13.078;2023-11-21T12:36:25;92402.66;;;14.76
76895;BMP280;65855;42.030;13.078;2023-11-21T12:38:51;92325.09;;;15.46
76895;BMP280;65855;42.030;13.078;2023-11-21T12:41:16;92360.41;;;15.73
76895;BMP280;65855;42.030;13.078;2023-11-21T12:43:43;92385.16;;;15.76
76895;BMP280;65855;42.030;13.078;2023-11-21T12:46:10;92335.47;;;16.00
76895;BMP280;65855;42.030;13.078;2023-11-21T12:48:42;92456.75;;;15.44
76895;BMP280;65855;42.030;13.078;2023-11-21T12:51:09;92453.47;;;15.10
76895;BMP280;65855;42.030;13.078;2023-11-21T12:53:35;92417.94;;;15.43
76895;BMP280;65855;42.030;13.078;2023-11-21T12:56:11;92400.75;;;15.03
76895;BMP280;65855;42.030;13.078;2023-11-21T12:58:37;92415.38;;;15.25
76895;BMP280;65855;42.030;13.078;2023-11-21T13:01:07;92444.75;;;16.59
76895;BMP280;65855;42.030;13.078;2023-11-21T13:03:39;92487.22;;;16.34
76895;BMP280;65855;42.030;13.078;2023-11-21T13:06:06;92476.22;;;15.92
76895;BMP280;65855;42.030;13.078;2023-11-21T13:08:33;92486.13;;;15.11
76895;BMP280;65855;42.030;13.078;2023-11-21T13:10:58;92485.19;;;15.68
76895;BMP280;65855;42.030;13.078;2023-11-21T13:13:25;92486.03;;;15.23
76895;BMP280;65855;42.030;13.078;2023-11-21T13:16:00;92478.88;;;15.43
76895;BMP280;65855;42.030;13.078;2023-11-21T13:18:27;92467.00;;;16.03
76895;BMP280;65855;42.030;13.078;2023-11-21T13:21:00;92471.72;;;15.15
76895;BMP280;65855;42.030;13.078;2023-11-21T13:23:27;92453.13;;;14.96
76895;BMP280;65855;42.030;13.078;2023-11-21T13:25:54;92439.81;;;14.68
76895;BMP280;65855;42.030;13.078;2023-11-21T13:28:20;92455.38;;;14.67
76895;BMP280;65855;42.030;13.078;2023-11-21T13:30:50;92454.69;;;14.40
76895;BMP280;65855;42.030;13.078;2023-11-21T13:33:18;92449.47;;;14.33
76895;BMP280;65855;42.030;13.078;2023-11-21T13:35:47;92434.81;;;14.26
76895;BMP280;65855;42.030;13.078;2023-11-21T13:38:14;92445.22;;;14.37
76895;BMP280;65855;42.030;13.078;2023-11-21T13:40:46;92418.53;;;14.12
76895;BMP280;65855;42.030;13.078;2023-11-21T13:43:14;92434.88;;;14.15
76895;BMP280;65855;42.030;13.078;2023-11-21T13:45:41;92435.09;;;14.21
76895;BMP280;65855;42.030;13.078;2023-11-21T13:48:07;92445.06;;;14.30
76895;BMP280;65855;42.030;13.078;2023-11-21T13:50:38;92431.31;;;14.31
76895;BMP280;65855;42.030;13.078;2023-11-21T13:53:04;92414.97;;;14.43
76895;BMP280;65855;42.030;13.078;2023-11-21T13:55:42;92420.09;;;14.32
76895;BMP280;65855;42.030;13.078;2023-11-21T13:58:07;92402.88;;;14.22
76895;BMP280;65855;42.030;13.078;2023-11-21T14:00:37;92395.41;;;14.14
76895;BMP280;65855;42.030;13.078;2023-11-21T14:03:12;92362.38;;;13.68
76895;BMP280;65855;42.030;13.078;2023-11-21T14:05:47;92338.63;;;13.72